M I D A S
Marine Information and Data Acquisition System
Tripno 1743 of the Zeeleeuw from 2009-07-31 09:58:22 to 2009-07-31 15:18:02
Back to CruiseResearch ActivitiesStationsMapUnderway DataData graphs

EquipmentUnitsComments
TimeDGPSUTC
LatitudeDGPSDM.mWGS84
LongitudeDGPSDM.mWGS84
SpeedMeteo Stationm/sRelative wind speed
DirectionMeteo StationdegRelative wind direction
TemperatureMeteo Stationdeg CelciusAir temperature
PressureMeteo StationPaAtmospheric pressure
HumidityMeteo Station%Relative humidity
Missing or incorrect values are displayed as -999
Metereological data collected by the RV Zeeleeuw from 2009-07-31 07:15:07 to 2009-07-31 15:25:39
Time Latitude Longitude Speed Direction Temperature Pressure Humidity
2009-07-31 07:16 51°13.665 2°55.961 3.6 346 13.4 102280 69
2009-07-31 07:17 51°13.665 2°55.961 2.8 350 13.5 102280 75
2009-07-31 07:18 51°13.665 2°55.96 2.2 353 13.5 102280 73
2009-07-31 07:19 51°13.664 2°55.96 2.2 357 13.5 102280 73
2009-07-31 07:20 51°13.664 2°55.959 2.4 6 13.5 102280 59
2009-07-31 07:21 51°13.664 2°55.959 3 358 13.6 102290 74
2009-07-31 07:22 51°13.664 2°55.96 3.3 359 13.6 102280 61
2009-07-31 07:23 51°13.664 2°55.96 2.7 345 13.6 102290 70
2009-07-31 07:24 51°13.664 2°55.96 3.6 354 13.6 102290 71
2009-07-31 07:25 51°13.661 2°55.958 3.3 352 13.6 102280 70
2009-07-31 07:26 51°13.66 2°55.958 3 352 13.5 102290 69
2009-07-31 07:27 51°13.663 2°55.96 1.9 351 13.5 102290 69
2009-07-31 07:28 51°13.662 2°55.959 3.3 347 13.6 102290 69
2009-07-31 07:29 51°13.663 2°55.959 1.9 -999 13.6 102290 68
2009-07-31 07:30 51°13.662 2°55.959 2.3 352 13.7 102290 70
2009-07-31 07:31 51°13.66 2°55.959 2.7 353 13.7 102290 68
2009-07-31 07:32 51°13.66 2°55.959 3 348 13.7 102290 69
2009-07-31 07:33 51°13.662 2°55.96 2.5 353 13.7 102290 69
2009-07-31 07:34 51°13.666 2°55.962 2.1 353 13.7 102290 68
2009-07-31 07:35 51°13.661 2°55.96 3.1 343 13.7 102290 66
2009-07-31 07:36 51°13.662 2°55.961 3.1 348 13.7 102290 70
2009-07-31 07:37 51°13.664 2°55.961 2.4 356 13.7 102290 70
2009-07-31 07:38 51°13.662 2°55.96 2.1 351 13.8 102290 68
2009-07-31 07:39 51°13.662 2°55.96 2.3 358 13.8 102290 71
2009-07-31 07:40 51°13.662 2°55.96 2.2 352 13.9 102290 59
2009-07-31 07:41 51°13.662 2°55.96 2.2 346 13.9 102290 69
2009-07-31 07:42 51°13.662 2°55.96 2.6 347 14 102290 68
2009-07-31 07:43 51°13.662 2°55.96 2.8 348 14 102300 70
2009-07-31 07:44 51°13.662 2°55.959 3.2 352 14 102300 71
2009-07-31 07:45 51°13.662 2°55.959 1.5 4 14.1 102300 69
2009-07-31 07:46 51°13.662 2°55.959 1.4 15 14.2 102300 72
2009-07-31 07:47 51°13.663 2°55.959 1.9 15 14.3 102300 75
2009-07-31 07:48 51°13.663 2°55.959 3.5 359 14.3 102300 61
2009-07-31 07:49 51°13.663 2°55.959 2.8 349 14.3 102300 72
2009-07-31 07:50 51°13.663 2°55.959 3.1 352 14.2 102310 71
2009-07-31 07:51 51°13.663 2°55.959 2.2 356 14.2 102310 71
2009-07-31 07:52 51°13.663 2°55.959 2.2 349 14.3 102310 70
2009-07-31 07:53 51°13.662 2°55.959 1.5 7 14.4 102310 66
2009-07-31 07:54 51°13.662 2°55.959 2.2 356 14.4 102310 71
2009-07-31 07:55 51°13.663 2°55.959 3.2 359 14.5 102310 70
2009-07-31 07:56 51°13.662 2°55.958 2.5 357 14.5 102310 71
2009-07-31 07:57 51°13.663 2°55.959 2.1 358 14.5 102310 69
2009-07-31 07:58 51°13.663 2°55.959 2.8 357 14.6 102310 68
2009-07-31 07:59 51°13.663 2°55.959 2.1 348 14.6 102310 65
2009-07-31 08:00 51°13.663 2°55.959 2.4 353 14.7 102310 70
2009-07-31 08:01 51°13.662 2°55.958 2.9 351 14.7 102310 69
2009-07-31 08:02 51°13.663 2°55.959 2.3 354 14.8 102310 67
2009-07-31 08:03 51°13.662 2°55.959 2.6 348 14.8 102310 68
2009-07-31 08:04 51°13.663 2°55.959 2.9 352 14.8 102310 69
2009-07-31 08:05 51°13.663 2°55.958 2.4 348 14.9 102310 68
2009-07-31 08:06 51°13.663 2°55.958 2.6 351 14.9 102310 67
2009-07-31 08:07 51°13.662 2°55.958 3.3 350 14.9 102310 66
2009-07-31 08:08 51°13.662 2°55.958 2.9 351 14.9 102310 66
2009-07-31 08:09 51°13.662 2°55.959 2.9 350 15 102310 68
2009-07-31 08:10 51°13.662 2°55.959 1.9 355 15 102310 66
2009-07-31 08:11 51°13.663 2°55.96 2.3 357 15.1 102300 65
2009-07-31 08:12 51°13.663 2°55.96 1.7 350 15.1 102300 68
2009-07-31 08:13 51°13.664 2°55.96 1.6 353 15.2 102300 67
2009-07-31 08:14 51°13.664 2°55.96 2.3 341 15.3 102300 68
2009-07-31 08:15 51°13.664 2°55.959 2.5 336 15.4 102290 70
2009-07-31 08:16 51°13.664 2°55.959 2.1 338 15.4 102290 65
2009-07-31 08:17 51°13.663 2°55.959 2.3 350 15.4 102290 67
2009-07-31 08:18 51°13.663 2°55.96 2 357 15.4 102290 69
2009-07-31 08:19 51°13.664 2°55.96 1.7 349 15.4 102290 70
2009-07-31 08:20 51°13.665 2°55.959 1.5 354 15.5 102290 69
2009-07-31 08:21 51°13.665 2°55.959 0.9 -999 15.5 102290 69
2009-07-31 08:22 51°13.665 2°55.959 1.7 356 15.5 102290 68
2009-07-31 08:23 51°13.665 2°55.959 1.9 340 15.5 102290 69
2009-07-31 08:24 51°13.664 2°55.96 3 353 15.7 102290 71
2009-07-31 08:25 51°13.663 2°55.96 2.5 351 15.6 102290 69
2009-07-31 08:26 51°13.661 2°55.96 2.6 355 15.7 102290 69
2009-07-31 08:27 51°13.66 2°55.96 2.1 3 15.6 102290 67
2009-07-31 08:28 51°13.661 2°55.959 1.9 356 15.7 102290 66
2009-07-31 08:29 51°13.661 2°55.959 1.9 356 15.7 102290 68
2009-07-31 08:30 51°13.661 2°55.959 2.2 1 15.8 102300 67
2009-07-31 08:31 51°13.66 2°55.959 1.8 352 15.9 102300 68
2009-07-31 08:32 51°13.66 2°55.959 2.4 1 15.9 102300 68
2009-07-31 08:33 51°13.66 2°55.959 1.6 354 15.9 102300 67
2009-07-31 08:34 51°13.661 2°55.959 2 11 16 102300 67
2009-07-31 08:35 51°13.661 2°55.959 1.6 2 16 102300 66
2009-07-31 08:36 51°13.662 2°55.959 2.1 354 16.1 102290 66
2009-07-31 08:37 51°13.662 2°55.959 2 1 16.1 102300 68
2009-07-31 08:38 51°13.662 2°55.959 2.3 351 16.1 102300 66
2009-07-31 08:39 51°13.662 2°55.959 2.7 353 16.1 102300 67
2009-07-31 08:40 51°13.663 2°55.959 2.6 352 16.1 102300 69
2009-07-31 08:41 51°13.663 2°55.959 2 355 16.2 102300 67
2009-07-31 08:42 51°13.663 2°55.959 1.8 359 16.2 102300 69
2009-07-31 08:43 51°13.663 2°55.959 1.8 353 16.3 102300 67
2009-07-31 08:44 51°13.663 2°55.959 2.7 351 16.4 102300 68
2009-07-31 08:45 51°13.663 2°55.958 2.1 341 16.4 102300 67
2009-07-31 08:46 51°13.662 2°55.959 2.8 350 16.4 102300 67
2009-07-31 08:47 51°13.663 2°55.959 2.9 17 16.4 102300 67
2009-07-31 08:48 51°13.662 2°55.959 2.5 15 16.4 102300 65
2009-07-31 08:49 51°13.662 2°55.96 2 11 16.4 102300 64
2009-07-31 08:50 51°13.662 2°55.96 1.6 20 16.4 102300 65
2009-07-31 08:51 51°13.662 2°55.96 2.2 359 16.5 102300 66
2009-07-31 08:52 51°13.662 2°55.96 2.4 17 16.5 102300 67
2009-07-31 08:53 51°13.663 2°55.959 3.2 349 16.6 102300 66
2009-07-31 08:54 51°13.662 2°55.96 2.7 351 16.6 102300 65
2009-07-31 08:55 51°13.662 2°55.96 2.4 352 16.5 102300 65
2009-07-31 08:56 51°13.661 2°55.96 2.6 343 16.6 102300 65
2009-07-31 08:57 51°13.661 2°55.961 2.1 350 16.6 102300 66
2009-07-31 08:58 51°13.661 2°55.96 2.1 352 16.7 102290 66
2009-07-31 08:59 51°13.661 2°55.96 3 15 16.8 102290 65
2009-07-31 09:00 51°13.661 2°55.96 2.2 350 16.7 102290 66
2009-07-31 09:01 51°13.662 2°55.96 3.2 349 16.7 102290 66
2009-07-31 09:02 51°13.662 2°55.96 2.9 357 16.7 102290 64
2009-07-31 09:03 51°13.662 2°55.959 2.6 343 16.6 102290 65
2009-07-31 09:04 51°13.662 2°55.959 3.2 357 16.7 -999 62
2009-07-31 09:05 51°13.662 2°55.959 3.1 350 16.7 102280 62
2009-07-31 09:06 51°13.662 2°55.959 2.4 343 16.7 102280 63
2009-07-31 09:07 51°13.662 2°55.959 2.8 349 16.7 102280 62
2009-07-31 09:08 51°13.663 2°55.959 3.1 356 16.7 102290 61
2009-07-31 09:09 51°13.662 2°55.959 2.1 13 16.7 102290 63
2009-07-31 09:10 51°13.662 2°55.959 2.2 21 16.7 102290 63
2009-07-31 09:11 51°13.662 2°55.96 1.3 350 16.8 102290 63
2009-07-31 09:12 51°13.662 2°55.961 1.6 3 16.9 102290 63
2009-07-31 09:13 51°13.663 2°55.961 1.3 10 16.9 102290 64
2009-07-31 09:14 51°13.663 2°55.96 1.1 15 16.9 102280 63
2009-07-31 09:15 51°13.663 2°55.96 1.3 7 16.9 102280 62
2009-07-31 09:16 51°13.662 2°55.96 1.3 353 17 102280 62
2009-07-31 09:17 51°13.663 2°55.96 2.4 339 17 102280 61
2009-07-31 09:18 51°13.663 2°55.961 2.1 346 17.1 102270 61
2009-07-31 09:19 51°13.662 2°55.961 2.3 349 17.1 102270 60
2009-07-31 09:20 51°13.662 2°55.961 1.7 353 17.1 102280 59
2009-07-31 09:21 51°13.662 2°55.96 2.5 347 17.1 102270 61
2009-07-31 09:22 51°13.662 2°55.96 2.3 353 17.1 102270 60
2009-07-31 09:23 51°13.662 2°55.959 2 347 17 102270 59
2009-07-31 09:24 51°13.662 2°55.959 1.9 346 17.1 102270 60
2009-07-31 09:25 51°13.661 2°55.96 1.7 3 17.1 102270 60
2009-07-31 09:26 51°13.661 2°55.959 2.5 3 17.1 102270 61
2009-07-31 09:27 51°13.666 2°55.938 2.6 27 17.2 102270 61
2009-07-31 09:28 51°13.692 2°55.856 2.2 35 17.2 102270 61
2009-07-31 09:29 51°13.723 2°55.778 2.5 38 17.3 102270 61
2009-07-31 09:30 51°13.766 2°55.705 1.2 26 17.2 102270 60
2009-07-31 09:31 51°13.812 2°55.65 1.1 21 17.3 102270 60
2009-07-31 09:32 51°13.866 2°55.62 0.2 6 17.4 102270 59
2009-07-31 09:33 51°13.91 2°55.625 0.2 6 17.5 102270 59
2009-07-31 09:34 51°13.933 2°55.636 0.5 5 17.6 102270 58
2009-07-31 09:35 51°13.937 2°55.616 2 259 17.7 102270 58
2009-07-31 09:36 51°13.962 2°55.57 0.8 270 17.9 102270 58
2009-07-31 09:37 51°14.031 2°55.504 0.6 336 18 102270 59
2009-07-31 09:38 51°14.122 2°55.422 1 343 18 102270 57
2009-07-31 09:39 51°14.218 2°55.305 1.4 327 18 102270 57
2009-07-31 09:40 51°14.307 2°55.154 5.1 318 17.9 102270 56
2009-07-31 09:41 51°14.403 2°54.987 4.1 25 17.8 102270 55
2009-07-31 09:42 51°14.541 2°54.879 5.7 323 17.9 102270 58
2009-07-31 09:43 51°14.698 2°54.73 6.7 322 17.8 102270 57
2009-07-31 09:44 51°14.86 2°54.583 5.1 327 17.9 102260 60
2009-07-31 09:45 51°15.031 2°54.443 6 325 17.8 102270 54
2009-07-31 09:46 51°15.201 2°54.303 4.5 325 17.7 102260 54
2009-07-31 09:47 51°15.372 2°54.165 6.3 321 17.7 102260 61
2009-07-31 09:48 51°15.542 2°54.027 5 327 17.7 102260 63
2009-07-31 09:49 51°15.709 2°53.878 5.7 323 17.6 102260 63
2009-07-31 09:50 51°15.873 2°53.719 6.3 321 17.5 102250 64
2009-07-31 09:51 51°16.037 2°53.563 5.6 324 17.5 102260 64
2009-07-31 09:52 51°16.203 2°53.41 4.5 323 17.4 102250 63
2009-07-31 09:53 51°16.372 2°53.252 5.4 320 17.4 102260 64
2009-07-31 09:54 51°16.533 2°53.094 5.6 322 17.4 102250 64
2009-07-31 09:55 51°16.704 2°52.952 4.4 321 17.4 102250 63
2009-07-31 09:56 51°16.878 2°52.82 5.4 319 17.3 102250 63
2009-07-31 09:57 51°17.057 2°52.699 4.9 322 17.4 102250 65
2009-07-31 09:58 51°17.245 2°52.62 4.6 325 17.4 102260 62
2009-07-31 09:59 51°17.443 2°52.588 3.5 322 17.4 102250 62
2009-07-31 10:00 51°17.639 2°52.558 4 325 17.4 102260 64
2009-07-31 10:01 51°17.835 2°52.534 4.2 324 17.4 102250 64
2009-07-31 10:02 51°18.032 2°52.537 4.2 324 17.3 102260 65
2009-07-31 10:03 51°18.228 2°52.561 3 325 17.4 102260 65
2009-07-31 10:04 51°18.425 2°52.593 4.4 329 17.4 102260 66
2009-07-31 10:05 51°18.622 2°52.642 4.4 328 17.3 102260 66
2009-07-31 10:06 51°18.818 2°52.692 3 325 17.4 102250 65
2009-07-31 10:07 51°19.014 2°52.732 2.8 330 17.3 102260 66
2009-07-31 10:08 51°19.21 2°52.779 3.1 334 17.3 102260 66
2009-07-31 10:09 51°19.404 2°52.826 3.8 332 17.4 102260 66
2009-07-31 10:10 51°19.604 2°52.872 3.7 327 17.3 102250 66
2009-07-31 10:11 51°19.802 2°52.92 3 331 17.3 102260 65
2009-07-31 10:12 51°20 2°52.967 3.6 330 17.3 102250 66
2009-07-31 10:13 51°20.198 2°53.013 3.1 328 17.4 102250 66
2009-07-31 10:14 51°20.393 2°53.057 2.9 332 17.3 102260 66
2009-07-31 10:15 51°20.589 2°53.107 2.8 334 17.3 102260 65
2009-07-31 10:16 51°20.784 2°53.151 3.6 330 17.3 102250 65
2009-07-31 10:17 51°20.982 2°53.192 3.2 327 17.3 102250 65
2009-07-31 10:18 51°21.177 2°53.235 3 328 17.3 102260 64
2009-07-31 10:19 51°21.37 2°53.277 3.4 323 17.2 102260 63
2009-07-31 10:20 51°21.565 2°53.318 3 328 17.3 102250 64
2009-07-31 10:21 51°21.76 2°53.367 2.4 329 17.3 102250 64
2009-07-31 10:22 51°21.956 2°53.411 2.7 335 17.4 102250 63
2009-07-31 10:23 51°22.157 2°53.462 3 342 17.4 102250 63
2009-07-31 10:24 51°22.352 2°53.513 3.6 336 17.3 102250 64
2009-07-31 10:25 51°22.549 2°53.565 3.4 335 17.3 102250 63
2009-07-31 10:26 51°22.75 2°53.616 3 333 17.3 102250 64
2009-07-31 10:27 51°22.946 2°53.66 2.8 337 17.3 102250 64
2009-07-31 10:28 51°23.145 2°53.7 2.5 336 17.3 102250 64
2009-07-31 10:29 51°23.348 2°53.733 3.6 322 17.4 102240 64
2009-07-31 10:30 51°23.545 2°53.769 2.3 335 17.5 102240 65
2009-07-31 10:31 51°23.745 2°53.807 3.1 329 17.5 102250 64
2009-07-31 10:32 51°23.945 2°53.848 3 328 17.6 102250 64
2009-07-31 10:33 51°24.146 2°53.889 2.6 324 17.6 102250 64
2009-07-31 10:34 51°24.346 2°53.929 2.5 325 17.6 102250 63
2009-07-31 10:35 51°24.551 2°53.966 2.8 334 17.6 102250 64
2009-07-31 10:36 51°24.75 2°53.998 2.9 335 17.7 102250 63
2009-07-31 10:37 51°24.953 2°54.028 2.5 322 17.7 102250 64
2009-07-31 10:38 51°25.15 2°54.059 2.6 325 17.7 102250 64
2009-07-31 10:39 51°25.348 2°54.087 3 326 17.6 102240 63
2009-07-31 10:40 51°25.546 2°54.113 2.8 329 17.7 102240 65
2009-07-31 10:41 51°25.745 2°54.134 2 332 17.7 102240 63
2009-07-31 10:42 51°25.942 2°54.158 1.6 333 17.7 102240 64
2009-07-31 10:43 51°26.138 2°54.186 2.2 332 17.8 102240 65
2009-07-31 10:44 51°26.337 2°54.221 2.8 331 17.9 102240 65
2009-07-31 10:45 51°26.536 2°54.249 3.5 325 17.9 102250 64
2009-07-31 10:46 51°26.736 2°54.285 3.7 320 17.9 102240 65
2009-07-31 10:47 51°26.938 2°54.321 3.5 321 17.8 102240 63
2009-07-31 10:48 51°27.141 2°54.354 2.8 325 17.8 102240 64
2009-07-31 10:49 51°27.342 2°54.389 2.5 326 17.8 102240 64
2009-07-31 10:50 51°27.539 2°54.43 3.6 331 17.8 102240 64
2009-07-31 10:51 51°27.738 2°54.472 3.1 333 17.9 102240 65
2009-07-31 10:52 51°27.937 2°54.515 2.7 324 17.9 102240 64
2009-07-31 10:53 51°28.137 2°54.556 3.1 322 18 102240 65
2009-07-31 10:54 51°28.337 2°54.59 2.7 317 17.9 102230 64
2009-07-31 10:55 51°28.536 2°54.625 2.8 317 17.9 102230 63
2009-07-31 10:56 51°28.735 2°54.662 2.3 323 17.9 102240 64
2009-07-31 10:57 51°28.934 2°54.697 2.8 324 17.9 102240 64
2009-07-31 10:58 51°29.131 2°54.731 3.3 319 17.9 102240 65
2009-07-31 10:59 51°29.33 2°54.765 2.7 320 17.9 102230 65
2009-07-31 11:00 51°29.533 2°54.801 3.2 324 17.8 102230 64
2009-07-31 11:01 51°29.731 2°54.851 3.1 322 17.7 102230 64
2009-07-31 11:02 51°29.931 2°54.905 3.4 326 17.8 102230 65
2009-07-31 11:03 51°30.13 2°54.954 2.9 323 17.8 102230 65
2009-07-31 11:04 51°30.327 2°55.024 3 322 17.8 102230 65
2009-07-31 11:05 51°30.523 2°55.097 2.5 330 17.8 102230 58
2009-07-31 11:06 51°30.722 2°55.174 1.9 334 17.7 102230 57
2009-07-31 11:07 51°30.915 2°55.246 2.6 326 17.7 102230 62
2009-07-31 11:08 51°31.111 2°55.309 3.5 317 17.8 102230 64
2009-07-31 11:09 51°31.312 2°55.279 3.1 317 17.9 102230 64
2009-07-31 11:10 51°31.51 2°55.229 3.4 318 17.9 102230 65
2009-07-31 11:11 51°31.705 2°55.177 2.6 318 17.9 102230 65
2009-07-31 11:12 51°31.894 2°55.09 4.6 27 18 102210 65
2009-07-31 11:13 51°32.081 2°54.999 4.3 23 17.9 102220 58
2009-07-31 11:14 51°32.274 2°54.923 3.3 31 17.9 102220 59
2009-07-31 11:15 51°32.469 2°54.855 3.9 21 17.9 102210 58
2009-07-31 11:16 51°32.664 2°54.793 4.6 21 17.8 102210 58
2009-07-31 11:17 51°32.859 2°54.722 3.4 27 17.8 102210 58
2009-07-31 11:18 51°33.054 2°54.713 2.5 335 17.8 102200 57
2009-07-31 11:19 51°33.232 2°54.828 2.3 350 17.8 102210 57
2009-07-31 11:20 51°33.377 2°55.03 3.4 350 17.7 102210 64
2009-07-31 11:21 51°33.467 2°55.296 6.4 353 17.5 102210 66
2009-07-31 11:22 51°33.486 2°55.511 3.6 5 17.4 102200 68
2009-07-31 11:23 51°33.481 2°55.61 3.5 2 17.3 102200 68
2009-07-31 11:24 51°33.478 2°55.673 3 4 17.4 102200 67
2009-07-31 11:25 51°33.478 2°55.716 4.7 12 17.3 102200 67
2009-07-31 11:26 51°33.479 2°55.747 3.7 9 17.3 102200 66
2009-07-31 11:27 51°33.48 2°55.766 3.6 11 17.3 102200 66
2009-07-31 11:28 51°33.482 2°55.777 2.7 19 17.4 102200 67
2009-07-31 11:29 51°33.485 2°55.785 2.6 352 17.4 102200 66
2009-07-31 11:30 51°33.49 2°55.788 3.5 13 17.4 102200 65
2009-07-31 11:31 51°33.498 2°55.79 3.6 4 17.4 102200 67
2009-07-31 11:32 51°33.507 2°55.79 3.8 8 17.4 102200 66
2009-07-31 11:33 51°33.518 2°55.79 3.8 10 17.3 102200 67
2009-07-31 11:34 51°33.528 2°55.788 3.7 19 17.3 102210 66
2009-07-31 11:35 51°33.538 2°55.787 3.7 28 17.3 102210 65
2009-07-31 11:36 51°33.548 2°55.783 3.1 29 17.3 102210 66
2009-07-31 11:37 51°33.557 2°55.779 2.3 33 17.4 102210 66
2009-07-31 11:38 51°33.565 2°55.774 2.9 33 17.4 102200 65
2009-07-31 11:39 51°33.574 2°55.768 2.7 37 17.4 102210 66
2009-07-31 11:40 51°33.582 2°55.76 3.8 35 17.4 102220 65
2009-07-31 11:41 51°33.591 2°55.752 3.8 39 17.4 102210 66
2009-07-31 11:42 51°33.601 2°55.759 3.5 36 17.4 102210 65
2009-07-31 11:43 51°33.607 2°55.807 3.8 9 17.5 102210 66
2009-07-31 11:44 51°33.591 2°55.886 4.6 359 17.4 102200 66
2009-07-31 11:45 51°33.552 2°55.979 4.2 2 17.4 102200 66
2009-07-31 11:46 51°33.501 2°56.067 5.4 354 17.3 102200 64
2009-07-31 11:47 51°33.44 2°56.138 4.8 352 17.1 102200 63
2009-07-31 11:48 51°33.394 2°56.193 3 359 17.1 102210 64
2009-07-31 11:49 51°33.363 2°56.231 2.9 357 17.1 102210 64
2009-07-31 11:50 51°33.341 2°56.263 2.7 6 17.2 102210 65
2009-07-31 11:51 51°33.324 2°56.291 3.1 358 17.2 102210 65
2009-07-31 11:52 51°33.304 2°56.323 4.1 358 17.2 102200 64
2009-07-31 11:53 51°33.242 2°56.406 4.9 346 17.2 102210 65
2009-07-31 11:54 51°33.14 2°56.537 5.3 349 17.1 102200 65
2009-07-31 11:55 51°33.045 2°56.656 4.9 346 17.1 102200 65
2009-07-31 11:56 51°32.991 2°56.714 4.4 352 17.1 102200 65
2009-07-31 11:57 51°32.96 2°56.738 3.5 352 17.1 102200 64
2009-07-31 11:58 51°32.946 2°56.753 3.4 8 17.1 102200 64
2009-07-31 11:59 51°32.939 2°56.767 3.1 14 17.1 102200 62
2009-07-31 12:00 51°32.937 2°56.78 2.9 8 17.3 102200 64
2009-07-31 12:01 51°32.939 2°56.79 2.7 18 17.3 102200 65
2009-07-31 12:02 51°32.943 2°56.796 2.3 19 17.5 102200 65
2009-07-31 12:03 51°32.949 2°56.8 3.1 26 17.6 102200 65
2009-07-31 12:04 51°32.955 2°56.802 2.7 34 17.6 102200 64
2009-07-31 12:05 51°32.961 2°56.804 2.2 34 17.5 102210 63
2009-07-31 12:06 51°32.967 2°56.806 2.8 34 17.5 102200 63
2009-07-31 12:07 51°32.973 2°56.808 2.3 27 17.6 102200 63
2009-07-31 12:08 51°32.978 2°56.812 1.8 32 17.6 102190 62
2009-07-31 12:09 51°32.984 2°56.816 2.2 33 17.7 102200 62
2009-07-31 12:10 51°32.989 2°56.821 2.4 29 17.7 102190 61
2009-07-31 12:11 51°32.994 2°56.827 2 26 17.7 102190 59
2009-07-31 12:12 51°32.998 2°56.832 1.6 23 17.8 102190 60
2009-07-31 12:13 51°33.001 2°56.838 2.3 23 17.8 102190 60
2009-07-31 12:14 51°33.003 2°56.842 2 21 17.9 102180 61
2009-07-31 12:15 51°33.006 2°56.848 1.9 22 17.9 102190 61
2009-07-31 12:16 51°33.009 2°56.854 1.6 23 18 102190 62
2009-07-31 12:17 51°33.01 2°56.859 1.6 17 18 102190 62
2009-07-31 12:18 51°33.012 2°56.864 1.7 16 18 102180 62
2009-07-31 12:19 51°33.013 2°56.869 1.4 16 18 102180 62
2009-07-31 12:20 51°33.014 2°56.874 1.6 21 18.1 102180 63
2009-07-31 12:21 51°33.017 2°56.877 2 24 18.1 102180 62
2009-07-31 12:22 51°33.022 2°56.878 2.1 25 18 102180 60
2009-07-31 12:23 51°33.028 2°56.878 1.3 28 18 102180 59
2009-07-31 12:24 51°33.034 2°56.877 1.7 28 18 102170 60
2009-07-31 12:25 51°33.039 2°56.878 1.7 30 18.1 102180 59
2009-07-31 12:26 51°33.045 2°56.88 1.6 29 18 102180 58
2009-07-31 12:27 51°33.05 2°56.882 1 28 18 102170 58
2009-07-31 12:28 51°33.055 2°56.884 1.4 28 18 102180 58
2009-07-31 12:29 51°33.058 2°56.886 1.8 38 18.1 102170 59
2009-07-31 12:30 51°33.061 2°56.889 1.9 38 18.2 102170 60
2009-07-31 12:31 51°33.063 2°56.894 1.4 41 18.2 102180 59
2009-07-31 12:32 51°33.065 2°56.898 1.1 39 18.1 102170 60
2009-07-31 12:33 51°33.066 2°56.903 1.1 34 18.1 102170 61
2009-07-31 12:34 51°33.066 2°56.907 1.9 32 18.2 102170 62
2009-07-31 12:35 51°33.065 2°56.911 1.5 31 18.2 102170 60
2009-07-31 12:36 51°33.064 2°56.916 1.3 28 18.2 102180 59
2009-07-31 12:37 51°33.063 2°56.919 1.3 28 18.2 102170 60
2009-07-31 12:38 51°33.062 2°56.924 1.7 23 18.2 102180 55
2009-07-31 12:39 51°33.06 2°56.927 1.9 22 18.1 102170 54
2009-07-31 12:40 51°33.057 2°56.93 1.9 21 18.1 102170 53
2009-07-31 12:41 51°33.056 2°56.933 2.5 27 18.3 102180 56
2009-07-31 12:42 51°33.054 2°56.936 2.1 21 18.3 102170 55
2009-07-31 12:43 51°33.051 2°56.939 1.8 14 18.3 102170 55
2009-07-31 12:44 51°33.026 2°56.921 2.9 341 18.2 102170 54
2009-07-31 12:45 51°33.001 2°56.86 4.1 338 18 102170 53
2009-07-31 12:46 51°32.969 2°56.821 2.8 358 17.9 102170 54
2009-07-31 12:47 51°32.942 2°56.824 2 13 17.8 102170 55
2009-07-31 12:48 51°32.926 2°56.837 2.6 24 17.8 102180 55
2009-07-31 12:49 51°32.914 2°56.85 1.8 36 17.9 102170 54
2009-07-31 12:50 51°32.904 2°56.86 2.2 31 18 102170 53
2009-07-31 12:51 51°32.895 2°56.869 1.8 34 18.1 102170 54
2009-07-31 12:52 51°32.889 2°56.873 1.7 31 18.1 102170 53
2009-07-31 12:53 51°32.887 2°56.874 1.8 33 18.2 102170 54
2009-07-31 12:54 51°32.886 2°56.875 1.4 33 18.3 102170 55
2009-07-31 12:55 51°32.885 2°56.876 1.5 37 18.4 102170 55
2009-07-31 12:56 51°32.883 2°56.877 1.9 36 18.4 102170 56
2009-07-31 12:57 51°32.881 2°56.88 2.6 35 18.4 102170 56
2009-07-31 12:58 51°32.877 2°56.883 1.7 32 18.3 102160 54
2009-07-31 12:59 51°32.876 2°56.885 2 36 18.3 102170 56
2009-07-31 13:00 51°32.878 2°56.884 1.8 32 18.3 102160 55
2009-07-31 13:01 51°32.882 2°56.881 1.5 33 18.3 102160 56
2009-07-31 13:02 51°32.887 2°56.877 1.7 24 18.3 102160 56
2009-07-31 13:03 51°32.891 2°56.872 1.5 43 18.3 102160 54
2009-07-31 13:04 51°32.894 2°56.868 1.6 40 18.3 102160 54
2009-07-31 13:05 51°32.895 2°56.864 1.6 38 18.3 102160 55
2009-07-31 13:06 51°32.895 2°56.863 1.9 26 18.3 102150 57
2009-07-31 13:07 51°32.894 2°56.862 0.7 28 18.3 102150 58
2009-07-31 13:08 51°32.892 2°56.861 1.9 28 18.5 102150 55
2009-07-31 13:09 51°32.89 2°56.861 1.8 27 18.4 102150 50
2009-07-31 13:10 51°32.887 2°56.861 1.6 23 18.3 102150 51
2009-07-31 13:11 51°32.884 2°56.861 1.5 27 18.2 102150 52
2009-07-31 13:12 51°32.881 2°56.861 0.9 28 18.2 102160 51
2009-07-31 13:13 51°32.878 2°56.862 1.2 41 18.2 102150 52
2009-07-31 13:14 51°32.873 2°56.863 0.9 28 18.2 102150 52
2009-07-31 13:15 51°32.869 2°56.862 1.3 22 18.3 102150 52
2009-07-31 13:16 51°32.865 2°56.861 1.1 30 18.2 102150 52
2009-07-31 13:17 51°32.863 2°56.857 0.7 28 18.3 102140 53
2009-07-31 13:18 51°32.863 2°56.852 1.2 29 18.5 102140 52
2009-07-31 13:19 51°32.863 2°56.846 1.2 26 18.5 102140 52
2009-07-31 13:20 51°32.863 2°56.84 1 30 18.5 102140 51
2009-07-31 13:21 51°32.862 2°56.834 1.1 27 18.5 102140 52
2009-07-31 13:22 51°32.86 2°56.829 1 22 18.5 102130 52
2009-07-31 13:23 51°32.857 2°56.825 0.8 22 18.5 102140 51
2009-07-31 13:24 51°32.854 2°56.822 1 29 18.5 102130 50
2009-07-31 13:25 51°32.85 2°56.819 1.4 25 18.5 102130 51
2009-07-31 13:26 51°32.846 2°56.815 1.1 25 18.5 102130 51
2009-07-31 13:27 51°32.837 2°56.821 0.3 27 18.5 102130 50
2009-07-31 13:28 51°32.82 2°56.863 0.5 29 18.5 102130 51
2009-07-31 13:29 51°32.793 2°56.934 0.9 351 18.8 102120 52
2009-07-31 13:30 51°32.761 2°57.018 0.6 324 19 102120 51
2009-07-31 13:31 51°32.729 2°57.109 0.9 328 19.3 102120 50
2009-07-31 13:32 51°32.696 2°57.202 1 28 19.5 102120 50
2009-07-31 13:33 51°32.662 2°57.295 1.9 30 19.6 102120 50
2009-07-31 13:34 51°32.629 2°57.39 2.2 23 19.6 102120 49
2009-07-31 13:35 51°32.597 2°57.485 1.8 21 19.6 102110 49
2009-07-31 13:36 51°32.565 2°57.582 1.5 28 19.5 102110 49
2009-07-31 13:37 51°32.528 2°57.692 2.5 317 19.5 102120 49
2009-07-31 13:38 51°32.472 2°57.857 3 328 19.3 102110 50
2009-07-31 13:39 51°32.382 2°58.055 4.4 325 19.1 102110 51
2009-07-31 13:40 51°32.284 2°58.259 4.2 326 18.9 102110 52
2009-07-31 13:41 51°32.152 2°58.463 5.7 328 18.8 102100 51
2009-07-31 13:42 51°31.989 2°58.611 5 329 18.6 102110 50
2009-07-31 13:43 51°31.807 2°58.698 4.8 333 18.6 102110 52
2009-07-31 13:44 51°31.61 2°58.741 4.5 333 18.5 102110 51
2009-07-31 13:45 51°31.41 2°58.77 5.1 328 18.5 102110 51
2009-07-31 13:46 51°31.211 2°58.774 5.1 332 18.4 102100 51
2009-07-31 13:47 51°31.014 2°58.711 4 333 18.4 102100 51
2009-07-31 13:48 51°30.825 2°58.587 4.8 336 18.5 102100 51
2009-07-31 13:49 51°30.637 2°58.463 5.3 334 18.5 102110 49
2009-07-31 13:50 51°30.447 2°58.343 4.6 332 18.5 102100 50
2009-07-31 13:51 51°30.256 2°58.226 5 335 18.6 102100 52
2009-07-31 13:52 51°30.064 2°58.112 5.2 335 18.5 102100 50
2009-07-31 13:53 51°29.87 2°58.003 5.9 332 18.6 102100 50
2009-07-31 13:54 51°29.676 2°57.89 4.2 336 18.6 102100 49
2009-07-31 13:55 51°29.481 2°57.775 4.5 334 18.6 102100 49
2009-07-31 13:56 51°29.287 2°57.664 4.6 334 18.6 102100 50
2009-07-31 13:57 51°29.092 2°57.553 4.8 336 18.6 102090 49
2009-07-31 13:58 51°28.898 2°57.443 4.5 332 18.6 102090 50
2009-07-31 13:59 51°28.703 2°57.335 4 331 18.6 102090 50
2009-07-31 14:00 51°28.512 2°57.225 4.1 329 18.7 102080 51
2009-07-31 14:01 51°28.321 2°57.117 4.1 333 18.7 102080 51
2009-07-31 14:02 51°28.131 2°57.011 4.2 331 18.7 102090 49
2009-07-31 14:03 51°27.94 2°56.896 3.5 332 18.8 102090 48
2009-07-31 14:04 51°27.749 2°56.778 3.8 331 18.8 102090 49
2009-07-31 14:05 51°27.558 2°56.658 4.1 330 18.8 102080 49
2009-07-31 14:06 51°27.366 2°56.54 4.5 338 18.7 102090 48
2009-07-31 14:07 51°27.171 2°56.419 3.6 332 18.8 102090 47
2009-07-31 14:08 51°26.977 2°56.303 4.8 328 18.9 102090 49
2009-07-31 14:09 51°26.784 2°56.181 4 327 18.8 102090 47
2009-07-31 14:10 51°26.59 2°56.057 3.8 329 18.8 102090 47
2009-07-31 14:11 51°26.399 2°55.942 3.8 329 18.8 102090 48
2009-07-31 14:12 51°26.21 2°55.831 4.1 328 18.8 102090 49
2009-07-31 14:13 51°26.022 2°55.713 3.7 328 18.9 102090 49
2009-07-31 14:14 51°25.834 2°55.593 2.8 327 18.9 102080 48
2009-07-31 14:15 51°25.646 2°55.473 4 321 18.9 102080 50
2009-07-31 14:16 51°25.457 2°55.35 3.2 326 18.8 102080 49
2009-07-31 14:17 51°25.267 2°55.223 3.6 325 18.9 102080 49
2009-07-31 14:18 51°25.078 2°55.093 3.7 326 18.9 102070 50
2009-07-31 14:19 51°24.888 2°54.968 3.9 324 18.9 102080 48
2009-07-31 14:20 51°24.697 2°54.846 3.5 322 18.9 102070 49
2009-07-31 14:21 51°24.504 2°54.722 3.9 317 18.9 102070 48
2009-07-31 14:22 51°24.312 2°54.59 3.6 320 19 102080 49
2009-07-31 14:23 51°24.121 2°54.46 2.9 326 19 102080 48
2009-07-31 14:24 51°23.928 2°54.328 3.7 22 19 102080 49
2009-07-31 14:25 51°23.734 2°54.198 3.9 322 19 102070 48
2009-07-31 14:26 51°23.539 2°54.079 3.2 320 19 102080 49
2009-07-31 14:27 51°23.345 2°53.954 4 321 19 102070 49
2009-07-31 14:28 51°23.151 2°53.83 4 317 19 102070 50
2009-07-31 14:29 51°22.954 2°53.74 4.8 316 19 102070 48
2009-07-31 14:30 51°22.749 2°53.728 3.8 26 18.9 102060 48
2009-07-31 14:31 51°22.545 2°53.72 3.3 317 18.9 102070 47
2009-07-31 14:32 51°22.341 2°53.708 4.1 20 18.9 102070 49
2009-07-31 14:33 51°22.137 2°53.694 4.7 28 18.9 102070 49
2009-07-31 14:34 51°21.936 2°53.635 4.3 27 18.8 102070 49
2009-07-31 14:35 51°21.736 2°53.558 4.6 30 18.8 102070 50
2009-07-31 14:36 51°21.537 2°53.475 4.6 21 18.8 102070 50
2009-07-31 14:37 51°21.336 2°53.399 5.2 22 18.8 102070 51
2009-07-31 14:38 51°21.133 2°53.324 4.2 28 18.8 102070 50
2009-07-31 14:39 51°20.932 2°53.243 3.7 25 18.8 102070 49
2009-07-31 14:40 51°20.73 2°53.165 4.7 30 18.8 102070 49
2009-07-31 14:41 51°20.528 2°53.087 4.1 29 18.8 102060 50
2009-07-31 14:42 51°20.325 2°53.009 4.2 21 18.8 102060 49
2009-07-31 14:43 51°20.122 2°52.933 4.7 27 18.8 102060 50
2009-07-31 14:44 51°19.919 2°52.859 3.8 24 18.8 102060 50
2009-07-31 14:45 51°19.716 2°52.788 4.2 28 18.8 102060 49
2009-07-31 14:46 51°19.513 2°52.707 3.1 22 18.8 102060 50
2009-07-31 14:47 51°19.31 2°52.63 4.7 27 18.8 102070 52
2009-07-31 14:48 51°19.106 2°52.554 4.8 30 18.7 102060 49
2009-07-31 14:49 51°18.903 2°52.476 4.1 29 18.6 102060 50
2009-07-31 14:50 51°18.701 2°52.401 4 20 18.6 102060 50
2009-07-31 14:51 51°18.499 2°52.326 4.1 22 18.5 102060 50
2009-07-31 14:52 51°18.296 2°52.251 4.1 26 18.5 102060 52
2009-07-31 14:53 51°18.094 2°52.194 5.9 27 18.5 102060 50
2009-07-31 14:54 51°17.891 2°52.19 5.2 28 18.4 102050 51
2009-07-31 14:55 51°17.686 2°52.187 5.4 25 18.4 102050 50
2009-07-31 14:56 51°17.482 2°52.185 4.3 27 18.4 102050 51
2009-07-31 14:57 51°17.279 2°52.178 5.4 30 18.3 102050 51
2009-07-31 14:58 51°17.075 2°52.168 4.4 29 18.3 102050 51
2009-07-31 14:59 51°16.876 2°52.196 5.7 22 18.3 102060 50
2009-07-31 15:00 51°16.698 2°52.326 7.2 22 18.3 102050 52
2009-07-31 15:01 51°16.528 2°52.485 8.1 24 18.2 102040 50
2009-07-31 15:02 51°16.358 2°52.636 8.9 27 18.2 102040 51
2009-07-31 15:03 51°16.189 2°52.785 7.2 28 18.2 102040 51
2009-07-31 15:04 51°16.026 2°52.937 7 24 18.2 102040 51
2009-07-31 15:05 51°15.869 2°53.103 7.7 22 18.1 102040 50
2009-07-31 15:06 51°15.717 2°53.279 7.4 22 18.2 102030 52
2009-07-31 15:07 51°15.566 2°53.455 7.7 26 18.1 102030 52
2009-07-31 15:08 51°15.416 2°53.633 7.7 23 18.1 102030 52
2009-07-31 15:09 51°15.268 2°53.815 8.4 28 18.2 102030 53
2009-07-31 15:10 51°15.121 2°53.997 7.1 22 18.1 102030 52
2009-07-31 15:11 51°14.968 2°54.173 8.4 22 18.1 102030 52
2009-07-31 15:12 51°14.815 2°54.351 7.6 22 18.1 102030 51
2009-07-31 15:13 51°14.665 2°54.533 7.5 28 18.1 102030 51
2009-07-31 15:14 51°14.529 2°54.735 7.2 22 18.2 102030 52
2009-07-31 15:15 51°14.406 2°54.952 7.7 28 18.1 102030 52
2009-07-31 15:16 51°14.298 2°55.183 8.1 29 18.2 102030 53
2009-07-31 15:17 51°14.197 2°55.34 5.7 29 18.2 102030 51
2009-07-31 15:18 51°14.086 2°55.436 3.8 29 18.3 102040 52
2009-07-31 15:19 51°13.975 2°55.518 3 22 18.4 102040 52
2009-07-31 15:20 51°13.863 2°55.598 3.7 27 18.4 102040 52
2009-07-31 15:21 51°13.765 2°55.702 3.5 21 18.5 102040 51
2009-07-31 15:22 51°13.712 2°55.804 5.4 27 18.6 102030 50
2009-07-31 15:23 51°13.68 2°55.89 5.5 22 18.7 102040 50
2009-07-31 15:24 51°13.665 2°55.95 2.2 259 18.7 102040 49
2009-07-31 15:25 51°13.662 2°55.959 1.5 32 18.8 102040 49